Benjamin Butler

Recruteur en chef - Bristol City
20 Janv 2028
Jeudi
Processus

Personnalité

Adaptabilité (19) Ambition (2) Controverse (16) Loyauté (19) Pression (19) Professionnalisme (7) Sportivité (12) Tempérament (4)

Profil

Style d'entraînement Démocratique
Diplôme Continental A
Détermination 9
Gestion des joueurs 4
Motivation 12
Discipline 7
Satisfaction professionnelle
100%
Fatigue
0%
Rôle Recruteur en chef
Salaire 73.2K p/s
Contrat 14.03.2029

Performance

Comportement Bon
Efficacité de l'entraînement
31%
Développement des joueurs
45%
Prévention des blessures
45%
Mise en place tactique
20%

Événements récents

En formation continue maintenant
A participé à une réunion de recrutement maintenant
A participé à une réunion de recrutement maintenant
A recommandé une cible de transfert maintenant
A participé à une réunion de recrutement 7j
A recommandé une cible de transfert 7j
En formation continue 7j
En formation continue 7j

Suivi en cours

144
Joueur Club Statut Capacité Confiance Observé Dernière observation Dernier vote
Dion Beljo Standard Liege Rapport prêt 131 / 132 66% 1 01.01.2028 -
Musa Malik Ikorodu City Actif 92 / 93 40% 5 31.12.2027 -
Gorka Gorosabel Real Sociedad Actif 106 / 121 40% 1 31.12.2027 -
Igor Tyjon Doncaster Rovers Actif 116 / 122 40% 1 29.12.2027 -
Ryan Kavuma-McQueen Accrington Stanley Actif 125 / 124 40% 1 29.12.2027 -
Caleb Yirenkyi Coventry City Actif 138 / 144 40% 3 27.12.2027 -
Dylan Cabral Arsenal Actif 89 / 103 40% 3 27.12.2027 -
Tiago Parente Benfica Actif 109 / 111 40% 5 26.12.2027 -
Lewis Orford Swindon Town Actif 113 / 119 40% 2 26.12.2027 -
Ryan McAidoo Gillingham Actif 113 / 129 40% 2 24.12.2027 -
Jayden Danns Wigan Athletic Actif 144 / 140 40% 1 24.12.2027 -
Oscar Schwartau Norwich City Actif 120 / 129 40% 2 22.12.2027 -
Emiliano Zambrano Gimnasia y Esgrima Actif 104 / 102 40% 1 22.12.2027 -
Seb Ferdinand Chesterfield Actif 107 / 126 40% 1 20.12.2027 -
Gabe Forsyth Crawley Town Actif 102 / 115 40% 1 20.12.2027 -
Mikkel Hope Haugesund Actif 85 / 105 40% 4 19.12.2027 -
Álex Marchal Real Sociedad Actif 125 / 122 40% 1 19.12.2027 -
Dani Díaz Real Sociedad Actif 123 / 122 40% 1 18.12.2027 -
Shea Lacey Wolverhampton Actif 131 / 134 40% 2 17.12.2027 -
Cooper Sanchez Atlanta United FC Actif 96 / 99 40% 4 17.12.2027 -
Luighi Palmeiras Actif 109 / 121 40% 3 16.12.2027 -
Rio Ngumoha Stockport County Actif 133 / 148 40% 5 16.12.2027 -
Hervin Goyes Deportivo Pasto Actif 104 / 107 40% 2 15.12.2027 -
Ronan Kpakio Cardiff City Actif 117 / 127 40% 2 15.12.2027 -
Jay Robinson Southampton Actif 125 / 132 40% 2 13.12.2027 -
Colin Guske Orlando City Actif 85 / 103 40% 3 11.12.2027 -
Gilberto Mora Atlético Madrid Actif 134 / 142 40% 2 08.12.2027 -
Zak Lovelace Crewe Alexandra Actif 112 / 119 40% 3 05.12.2027 -
Santiago López Independiente Actif 130 / 122 40% 3 02.12.2027 -
Chaka Coulibaly Remo Stars Actif 74 / 93 40% 3 29.11.2027 -
Ruben Ramos LA Galaxy Actif 113 / 104 40% 3 27.11.2027 -
Lion Beqiri Falkenberg Actif 108 / 105 40% 1 25.11.2027 -
Ben Broggio Grimsby Town Actif 106 / 113 40% 1 24.11.2027 -
Ibrahim Fullah Charlton Athletic Actif 127 / 126 40% 1 21.11.2027 -
Tyson Pearce St. Louis CITY SC Actif 98 / 98 40% 1 20.11.2027 -
Diogo Guzmán Montevideo City Torque Actif 104 / 119 40% 4 19.11.2027 -
Brandon Álvarez Penarol Actif 83 / 95 40% 1 19.11.2027 -
Joel Medina Independiente Actif 95 / 122 40% 1 18.11.2027 -
Dominik Chong Qui Atlanta United FC Actif 106 / 94 40% 2 17.11.2027 -
Trey Nyoni Rotherham United Actif 124 / 144 40% 1 16.11.2027 -
Franco Minerva Platense Actif 105 / 123 40% 3 13.11.2027 -
Kevin Angulo America de Cali Actif 104 / 114 40% 3 13.11.2027 -
Nicolas Sport Recife Actif 107 / 111 40% 1 09.11.2027 -
Harbor Miller LA Galaxy Actif 97 / 101 40% 2 03.11.2027 -
Tomás Aranda Boca Juniors Actif 118 / 121 40% 2 01.11.2027 -
Christos Mouzakitis Hull City Actif 132 / 145 40% 2 30.10.2027 -
Ethan Williams Peterborough United Actif 123 / 126 40% 6 28.10.2027 -
Joel Ezra Enyimba Actif 78 / 94 40% 3 25.10.2027 -
Demian Rea Banfield Actif 98 / 106 40% 1 23.10.2027 -
Aiden Hezarkhani Real Salt Lake Actif 96 / 92 40% 2 20.10.2027 -
Luca Williams-Barnett Tranmere Rovers Actif 114 / 129 40% 1 19.10.2027 -
Timofey Simanenka Gomel Actif 98 / 105 40% 1 14.10.2027 -
Abdoul Ouattara Burton Albion Actif 134 / 134 40% 1 12.10.2027 -
Manu Rodríguez Gijón Actif 116 / 111 40% 1 10.08.2027 -
Paulo Cardoso Sporting CP Actif 97 / 104 40% 1 26.07.2027 -
Davide Bartesaghi AC Milan Actif 125 / 137 40% 1 26.07.2027 -
Calum Agius Crewe Alexandra Actif 107 / 105 40% 1 19.07.2027 -
Finley McAllister Grimsby Town Actif 97 / 92 40% 1 21.06.2027 -
Joel McGregor Swindon Town Actif 97 / 96 40% 1 21.06.2027 -
Will Norris Wycombe Wanderers Actif 117 / 112 40% 2 04.06.2027 -
Jak Alnwick Huddersfield Town Actif 121 / 115 40% 1 04.06.2027 -
Pedro de la Vega FC Dallas Actif 133 / 134 66% 1 01.06.2027 -
Franz-Ethan Meichtry Genoa Actif 125 / 124 40% 2 30.05.2027 -
Brayann Pereira West Bromwich Albion Actif 128 / 119 40% 1 30.05.2027 -
Derensili Sanches Fernandes Huddersfield Town Actif 122 / 119 40% 5 29.05.2027 -
Araphat Mohammed Berekum Chelsea Actif 94 / 113 40% 1 26.05.2027 -
Stanley Mills Oxford United Actif 119 / 123 40% 4 23.05.2027 -
Ilyas Ansah Hull City Actif 137 / 134 40% 4 23.05.2027 -
Oswin Appollis Orlando Pirates Actif 127 / 128 40% 2 21.05.2027 -
Morgan Whittaker Middlesbrough Actif 132 / 134 40% 4 20.05.2027 -
Isaiah Jones Luton Town Actif 118 / 122 40% 1 20.05.2027 -
Giorgi Chakvetadze Watford Actif 117 / 128 40% 3 19.05.2027 -
David Turnbull Cardiff City Actif 111 / 123 40% 3 19.05.2027 -
Jack McGlynn Stoke City Actif 128 / 130 40% 3 18.05.2027 -
Mohamed Belloumi Hull City Actif 133 / 140 40% 2 18.05.2027 Plus d'infos
Jesús Rodríguez Como Actif 154 / 147 40% 3 17.05.2027 -
Luke Baartman ES Mostaganem Actif 96 / 106 40% 1 17.05.2027 -
Kwadwo Baah Watford Actif 118 / 132 40% 3 16.05.2027 -
Adam Wharton Crystal Palace Actif 158 / 155 40% 2 14.05.2027 -
Welington Southampton Actif 128 / 135 40% 2 09.05.2027 -
Ethan Galbraith Swansea City Actif 129 / 136 40% 2 08.05.2027 -
Enzo Le Fée Sunderland Actif 128 / 142 40% 3 07.05.2027 -
Quinten Timber Crystal Palace Actif 147 / 148 40% 2 05.05.2027 -
Isaac Price West Bromwich Albion Actif 126 / 132 40% 1 04.05.2027 -
Ali Ahmed Norwich City Actif 113 / 123 40% 1 04.05.2027 -
Othmane Maamma Watford Actif 134 / 127 40% 4 03.05.2027 -
Tom Fellows Southampton Actif 140 / 133 40% 2 02.05.2027 -
Tyler Goodrham Oxford United Actif 133 / 122 40% 1 30.04.2027 -
Dávid Strelec Middlesbrough Actif 146 / 138 40% 1 29.04.2027 -
Kutlwano Letlhaku Ajax Cape Town Actif 126 / 127 40% 1 29.04.2027 -
Nicolò Cambiaghi Bologna Actif 146 / 138 40% 1 24.04.2027 -
Ronald Swansea City Actif 134 / 127 40% 1 23.04.2027 -
Adrien Truffert Bournemouth Actif 150 / 145 40% 3 21.04.2027 -
Matt O'Riley Brighton Actif 149 / 141 40% 1 21.04.2027 -
Ryan Sessegnon Fulham Actif 137 / 147 40% 2 20.04.2027 -
Finn Azaz Southampton Actif 134 / 129 40% 2 18.04.2027 -
Max Bird Birmingham Actif 131 / 126 40% 3 15.04.2027 -
Romano Schmid Frosinone Actif 137 / 141 40% 1 14.04.2027 -
Tyrese Campbell Sheffield United Actif 123 / 122 40% 3 09.04.2027 -
Josh Tymon Swansea City Actif 130 / 128 40% 2 08.04.2027 -
Zeidane Inoussa Swansea City Actif 127 / 121 40% 1 07.04.2027 -
David Ozoh Derby County Actif 114 / 124 40% 1 05.04.2027 -
Peter Amidu Acquah Asante Kotoko Actif 97 / 104 40% 1 05.04.2027 -
Wilson Isidor Sunderland Actif 134 / 133 40% 4 02.04.2027 -
Amine Adli Bournemouth Actif 153 / 144 40% 1 27.03.2027 -
Carlos Vicente Birmingham Actif 139 / 147 40% 1 25.03.2027 -
Kwame Poku Queens Park Rangers Actif 125 / 126 40% 1 13.03.2027 -
Jack Rudoni Coventry City Actif 141 / 132 40% 1 12.03.2027 -
Gonzalo Fulham Actif 133 / 151 40% 2 11.03.2027 -
Georginio Rutter Brighton Actif 149 / 149 40% 2 08.03.2027 -
Richard Koné Queens Park Rangers Actif 124 / 127 40% 1 01.03.2027 -
Zack Steffen Spartak Moscow Actif 121 / 131 40% 1 26.01.2027 -
Brian Bwire Polokwane City Actif 86 / 84 40% 1 26.01.2027 -
Óscar Mingueza Crystal Palace Actif 141 / 150 40% 1 11.01.2027 -
Murillo Nottingham Forest Actif 158 / 151 40% 1 11.01.2027 -
Toni Fruk KV Mechelen Actif 132 / 133 89% 1 01.01.2027 Approuver
Toti Wolverhampton Actif 126 / 133 40% 1 01.01.2027 -
Bénie Traoré New York City Actif 128 / 121 40% 1 31.12.2026 -
Yousef Salech Cardiff City Actif 125 / 129 40% 2 30.12.2026 -
Etiosa Ighodaro Kaizer Chiefs Actif 101 / 104 40% 3 28.12.2026 -
Mohammed Yahaya Great Olympics Actif 87 / 91 40% 2 27.12.2026 -
Sibusiso Tshabalala Polokwane City Actif 96 / 93 40% 1 27.12.2026 -
Dom Ballard Leyton Orient Actif 119 / 123 40% 1 22.12.2026 -
Manfred Ugalde Spartak Moscow Actif 119 / 126 40% 1 18.12.2026 -
Prince Ukachukwu Sumgayit Actif 90 / 97 40% 1 18.12.2026 -
Ammar Ramadan DAC Dunajska Streda Actif 114 / 115 40% 1 17.12.2026 -
Ruben van Bommel Ferencvaros Actif 142 / 136 40% 1 14.12.2026 -
Evidence Makgopa Orlando Pirates Actif 114 / 109 40% 1 13.12.2026 -
Kévin Denkey FC Cincinnati Actif 118 / 136 40% 1 06.12.2026 -
Everton Bala Levski Actif 123 / 127 40% 1 06.12.2026 -
Luis Vázquez Birmingham Actif 141 / 132 40% 1 03.12.2026 -
Robert Mizo Ashanti Gold Actif 100 / 95 40% 1 24.11.2026 -
Bongani Mothiba SuperSport United Actif 99 / 85 40% 1 24.11.2026 -
Yeangel Montero Naxxar Lions Actif 105 / 106 40% 1 18.11.2026 -
Michael Kayode Brentford Actif 150 / 143 40% 1 18.11.2026 -
Facundo Mura Inter Miami CF Actif 113 / 124 40% 1 18.11.2026 -
Leonardo Campana New England Revolution Actif 117 / 131 40% 1 16.11.2026 -
Wessam Abou Ali Columbus Crew Actif 138 / 130 40% 2 13.11.2026 -
Mandla Mahlangu Ajax Cape Town Actif 110 / 105 40% 1 10.11.2026 -
Brayan León Mamelodi Sundowns Actif 129 / 112 40% 1 09.11.2026 -
Ramiro Ruiz Rodríguez Atlético Tucumán Actif 124 / 123 40% 1 07.11.2026 -
Aune Heggebø West Bromwich Albion Actif 137 / 122 40% 1 05.11.2026 -
Roman Celentano FC Cincinnati Actif 132 / 112 40% 1 18.08.2026 -
Matt Freese New York City Actif 118 / 128 40% 1 18.08.2026 -